createdAt,value
2018-12-05T00:02:20.116Z,90.47
2018-12-05T00:04:49.215Z,90.32
2018-12-05T00:07:18.650Z,90.30
2018-12-05T00:09:47.451Z,90.09
2018-12-05T00:12:16.259Z,89.37
2018-12-05T00:14:45.832Z,89.28
2018-12-05T00:17:14.623Z,89.31
2018-12-05T00:19:43.520Z,89.43
2018-12-05T00:22:12.372Z,89.00
2018-12-05T00:24:41.198Z,88.65
2018-12-05T00:27:10.004Z,88.50
2018-12-05T00:29:38.835Z,88.76
2018-12-05T00:32:07.646Z,88.69
2018-12-05T00:34:36.435Z,89.15
2018-12-05T00:37:06.240Z,89.64
2018-12-05T00:39:35.048Z,89.86
2018-12-05T00:42:03.924Z,89.24
2018-12-05T00:44:32.754Z,90.24
2018-12-05T00:47:01.560Z,90.72
2018-12-05T00:49:30.963Z,90.71
2018-12-05T00:52:00.831Z,90.26
2018-12-05T00:54:29.744Z,91.19
2018-12-05T00:56:58.552Z,91.16
2018-12-05T00:59:28.095Z,91.06
2018-12-05T01:01:57.167Z,91.01
2018-12-05T01:04:26.092Z,91.13
2018-12-05T01:06:54.928Z,90.75
2018-12-05T01:09:23.739Z,90.36
2018-12-05T01:11:52.579Z,90.33
2018-12-05T01:14:21.388Z,90.76
2018-12-05T01:16:50.195Z,89.73
2018-12-05T01:19:19.069Z,90.02
2018-12-05T01:21:47.888Z,90.31
2018-12-05T01:24:16.744Z,90.10
2018-12-05T01:26:45.843Z,89.78
2018-12-05T01:29:14.632Z,89.60
2018-12-05T01:31:43.963Z,89.30
2018-12-05T01:34:13.737Z,89.99
2018-12-05T01:36:42.619Z,89.20
2018-12-05T01:39:11.423Z,89.73
2018-12-05T01:41:40.636Z,89.70
2018-12-05T01:44:10.064Z,89.88
2018-12-05T01:46:38.937Z,89.81
2018-12-05T01:49:08.475Z,90.60
2018-12-05T01:51:37.309Z,90.38
2018-12-05T01:54:06.728Z,90.36
2018-12-05T01:56:36.040Z,90.44
2018-12-05T01:59:04.867Z,90.61
2018-12-05T02:01:33.752Z,90.50
2018-12-05T02:04:02.586Z,90.17
2018-12-05T02:06:31.437Z,90.69
2018-12-05T02:09:00.255Z,90.90
2018-12-05T02:11:29.176Z,91.53
2018-12-05T02:13:58.010Z,90.86
2018-12-05T02:16:26.867Z,90.55
2018-12-05T02:18:56.305Z,90.37
2018-12-05T02:21:25.730Z,90.42
2018-12-05T02:23:54.547Z,90.72
2018-12-05T02:26:23.375Z,91.20
2018-12-05T02:28:52.223Z,91.07
2018-12-05T02:31:21.356Z,90.99
2018-12-05T02:33:51.215Z,90.70
2018-12-05T02:36:20.028Z,90.70
2018-12-05T02:38:48.830Z,91.51
2018-12-05T02:41:17.631Z,90.89
2018-12-05T02:43:46.505Z,91.34
2018-12-05T02:46:15.316Z,90.85
2018-12-05T02:48:44.170Z,91.15
2018-12-05T02:51:13.061Z,90.96
2018-12-05T02:53:42.643Z,91.04
2018-12-05T02:56:12.097Z,90.85
2018-12-05T02:58:40.947Z,90.73
2018-12-05T03:01:10.396Z,89.99
2018-12-05T03:03:39.249Z,90.71
2018-12-05T03:06:08.072Z,90.23
2018-12-05T03:08:36.879Z,90.15
2018-12-05T03:11:05.706Z,90.79
2018-12-05T03:13:34.517Z,90.90
2018-12-05T03:16:03.333Z,91.75
2018-12-05T03:18:32.936Z,91.68
2018-12-05T03:21:01.762Z,91.45
2018-12-05T03:23:31.140Z,91.01
2018-12-05T03:26:00.092Z,91.47
2018-12-05T03:28:28.832Z,91.56
2018-12-05T03:30:57.656Z,91.63
2018-12-05T03:33:27.172Z,91.43
2018-12-05T03:35:55.990Z,91.14
2018-12-05T03:38:24.799Z,91.65
2018-12-05T03:40:53.666Z,91.37
2018-12-05T03:43:22.467Z,92.16
2018-12-05T03:45:51.342Z,92.08
2018-12-05T03:48:20.151Z,92.26
2018-12-05T03:50:49.021Z,91.79
2018-12-05T03:53:17.847Z,92.52
2018-12-05T03:55:46.669Z,92.43
2018-12-05T03:58:15.493Z,92.30
2018-12-05T04:00:44.279Z,92.37
2018-12-05T04:03:13.425Z,92.08
2018-12-05T04:05:43.561Z,92.15
2018-12-05T04:08:12.432Z,91.83
2018-12-05T04:10:41.230Z,92.37
2018-12-05T04:13:10.662Z,92.61
2018-12-05T04:15:41.074Z,92.27
2018-12-05T04:18:09.895Z,92.76
2018-12-05T04:20:38.756Z,92.06
2018-12-05T04:23:07.646Z,92.67
2018-12-05T04:25:36.738Z,92.50
2018-12-05T04:28:05.612Z,92.68
2018-12-05T04:30:34.403Z,92.56
2018-12-05T04:33:03.938Z,92.14
2018-12-05T04:35:32.764Z,92.79
2018-12-05T04:38:01.597Z,92.89
2018-12-05T04:40:30.696Z,93.12
2018-12-05T04:42:59.587Z,93.13
2018-12-05T04:45:28.506Z,92.79
2018-12-05T04:47:57.349Z,93.02
2018-12-05T04:50:26.180Z,92.51
2018-12-05T04:52:54.996Z,92.83
2018-12-05T04:55:23.789Z,92.74
2018-12-05T04:57:52.657Z,93.05
2018-12-05T05:00:22.569Z,93.12
2018-12-05T05:02:52.476Z,93.23
2018-12-05T05:05:21.268Z,92.73
2018-12-05T05:07:50.085Z,93.61
2018-12-05T05:10:18.968Z,93.92
2018-12-05T05:12:47.819Z,93.36
2018-12-05T05:15:16.625Z,92.98
2018-12-05T05:17:45.415Z,92.46
2018-12-05T05:20:14.251Z,92.13
2018-12-05T05:22:43.183Z,92.72
2018-12-05T05:25:12.019Z,92.37
2018-12-05T05:27:45.910Z,92.86
2018-12-05T05:30:10.191Z,92.70
2018-12-05T05:32:38.994Z,93.26
2018-12-05T05:35:08.130Z,92.38
2018-12-05T05:37:36.942Z,93.30
2018-12-05T05:40:05.827Z,92.95
2018-12-05T05:42:34.705Z,92.71
2018-12-05T05:45:03.612Z,92.20
2018-12-05T05:47:32.475Z,92.38
2018-12-05T05:50:01.301Z,92.45
2018-12-05T05:52:30.168Z,92.80
2018-12-05T05:54:58.994Z,92.27
2018-12-05T05:57:28.101Z,92.51
2018-12-05T05:59:56.909Z,92.88
2018-12-05T06:02:26.384Z,92.71
2018-12-05T06:04:55.203Z,92.70
2018-12-05T06:07:24.033Z,92.65
2018-12-05T06:09:52.925Z,92.29
2018-12-05T06:12:21.748Z,92.34
2018-12-05T06:14:50.580Z,92.86
2018-12-05T06:17:19.411Z,92.40
2018-12-05T06:19:48.210Z,92.68
2018-12-05T06:22:17.050Z,92.28
2018-12-05T06:24:45.927Z,92.09
2018-12-05T06:27:14.725Z,92.41
2018-12-05T06:29:44.467Z,92.20
2018-12-05T06:32:13.304Z,92.15
2018-12-05T06:34:42.173Z,91.93
2018-12-05T06:37:11.159Z,91.82
2018-12-05T06:39:39.961Z,91.77
2018-12-05T06:42:09.087Z,91.99
2018-12-05T06:44:37.992Z,92.08
2018-12-05T06:47:06.864Z,91.84
2018-12-05T06:49:35.817Z,92.04
2018-12-05T06:52:04.655Z,91.53
2018-12-05T06:54:33.567Z,91.51
2018-12-05T06:57:02.413Z,91.84
2018-12-05T06:59:31.230Z,91.75
2018-12-05T07:02:00.926Z,90.90
2018-12-05T07:04:29.934Z,91.27
2018-12-05T07:06:59.745Z,91.06
2018-12-05T07:09:28.617Z,90.88
2018-12-05T07:11:57.414Z,90.63
2018-12-05T07:14:26.320Z,90.99
2018-12-05T07:16:55.116Z,91.01
2018-12-05T07:19:24.402Z,90.82
2018-12-05T07:21:53.292Z,90.82
2018-12-05T07:24:22.157Z,90.60
2018-12-05T07:26:50.971Z,90.26
2018-12-05T07:29:19.775Z,90.41
2018-12-05T07:31:48.614Z,90.71
2018-12-05T07:34:17.467Z,90.76
2018-12-05T07:36:46.291Z,90.55
2018-12-05T07:39:15.113Z,90.46
2018-12-05T07:41:43.987Z,90.64
2018-12-05T07:44:13.324Z,90.57
2018-12-05T07:46:42.151Z,90.42
2018-12-05T07:49:10.967Z,89.84
2018-12-05T07:51:39.958Z,90.29
2018-12-05T07:54:09.051Z,90.37
2018-12-05T07:56:37.842Z,90.12
2018-12-05T07:59:06.648Z,89.82
2018-12-05T08:01:35.463Z,89.79
2018-12-05T08:04:04.302Z,90.32
2018-12-05T08:06:33.789Z,89.79
2018-12-05T08:09:02.652Z,89.77
2018-12-05T08:11:31.526Z,89.51
2018-12-05T08:14:00.399Z,89.99
2018-12-05T08:16:29.250Z,89.56
2018-12-05T08:18:58.055Z,89.98
2018-12-05T08:21:27.072Z,89.77
2018-12-05T08:23:55.875Z,89.31
2018-12-05T08:26:25.733Z,89.17
2018-12-05T08:28:54.844Z,89.30
2018-12-05T08:31:23.992Z,88.38
2018-12-05T08:33:52.829Z,88.37
2018-12-05T08:36:21.685Z,88.66
2018-12-05T08:38:51.838Z,88.85
2018-12-05T08:41:20.949Z,87.64
2018-12-05T08:43:49.793Z,87.46
2018-12-05T08:46:19.660Z,87.80
2018-12-05T08:48:48.593Z,87.24
2018-12-05T08:51:17.414Z,87.05
2018-12-05T08:53:46.271Z,87.54
2018-12-05T08:56:15.072Z,87.47
2018-12-05T08:58:44.108Z,87.33
2018-12-05T09:01:13.554Z,87.73
2018-12-05T09:03:42.397Z,87.42
2018-12-05T09:06:11.201Z,87.36
2018-12-05T09:08:41.388Z,87.42
2018-12-05T09:11:11.028Z,86.89
2018-12-05T09:13:39.920Z,87.14
2018-12-05T09:16:08.711Z,87.01
2018-12-05T09:18:37.838Z,86.86
2018-12-05T09:21:06.785Z,86.89
2018-12-05T09:23:35.647Z,86.33
2018-12-05T09:26:04.536Z,86.03
2018-12-05T09:28:34.025Z,86.29
2018-12-05T09:31:02.839Z,85.86
2018-12-05T09:33:31.629Z,86.45
2018-12-05T09:36:00.416Z,86.81
2018-12-05T09:38:30.468Z,85.79
2018-12-05T09:41:00.640Z,86.00
2018-12-05T09:43:29.403Z,86.04
2018-12-05T09:45:58.239Z,85.94
2018-12-05T09:48:27.312Z,86.17
2018-12-05T09:50:56.120Z,86.16
2018-12-05T09:53:24.899Z,86.52
2018-12-05T09:55:53.766Z,86.14
2018-12-05T09:58:22.649Z,85.36
2018-12-05T10:00:51.521Z,86.05
2018-12-05T10:03:20.400Z,86.08
2018-12-05T10:05:49.208Z,86.04
2018-12-05T10:08:18.014Z,86.63
2018-12-05T10:10:46.804Z,86.27
2018-12-05T10:13:15.592Z,85.15
2018-12-05T10:15:44.445Z,84.84
2018-12-05T10:18:13.309Z,85.00
2018-12-05T10:20:42.618Z,84.87
2018-12-05T10:23:12.272Z,83.40
2018-12-05T10:25:42.081Z,84.03
2018-12-05T10:28:11.314Z,82.89
2018-12-05T10:30:40.201Z,83.38
2018-12-05T10:33:09.056Z,82.62
2018-12-05T10:35:37.927Z,83.29
2018-12-05T10:38:06.827Z,83.41
2018-12-05T10:40:36.526Z,82.63
2018-12-05T10:43:05.428Z,81.22
2018-12-05T10:45:34.319Z,82.32
2018-12-05T10:48:03.431Z,81.48
2018-12-05T10:50:33.284Z,81.14
2018-12-05T10:53:02.120Z,82.84
2018-12-05T10:55:31.568Z,81.86
2018-12-05T10:58:00.408Z,82.29
2018-12-05T11:00:35.211Z,81.44
2018-12-05T11:03:09.411Z,82.30
2018-12-05T11:05:43.739Z,82.72
2018-12-05T11:08:17.965Z,81.74
2018-12-05T11:10:52.250Z,81.75
2018-12-05T11:13:26.492Z,81.57
2018-12-05T11:16:12.728Z,80.94
2018-12-05T11:18:46.958Z,81.53
2018-12-05T11:21:21.739Z,81.39
2018-12-05T11:24:56.600Z,81.41
2018-12-05T11:27:25.797Z,81.20
2018-12-05T11:29:56.800Z,80.47
2018-12-05T11:32:25.606Z,80.63
2018-12-05T11:34:54.492Z,80.42
2018-12-05T11:37:23.327Z,81.27
2018-12-05T11:39:54.531Z,81.48
2018-12-05T11:42:23.287Z,81.24
2018-12-05T11:44:52.312Z,81.11
2018-12-05T11:47:23.047Z,80.77
2018-12-05T11:49:53.120Z,80.96
2018-12-05T11:52:22.186Z,80.31
2018-12-05T11:54:51.024Z,80.52
2018-12-05T11:57:19.863Z,80.15
2018-12-05T11:59:49.540Z,80.88
2018-12-05T12:02:22.262Z,79.78
2018-12-05T12:04:47.823Z,80.56
2018-12-05T12:07:16.672Z,80.25
2018-12-05T12:09:45.472Z,79.99
2018-12-05T12:12:19.753Z,79.06
2018-12-05T12:14:48.662Z,80.14
2018-12-05T12:17:29.184Z,80.56
2018-12-05T12:20:01.458Z,80.38
2018-12-05T12:22:30.891Z,80.08
2018-12-05T12:25:04.600Z,80.41
2018-12-05T12:27:33.399Z,80.64
2018-12-05T12:30:02.753Z,80.92
2018-12-05T12:32:33.126Z,80.58
2018-12-05T12:35:01.955Z,80.13
2018-12-05T12:37:31.643Z,79.73
2018-12-05T12:40:00.464Z,79.75
2018-12-05T12:42:29.288Z,79.67
2018-12-05T12:44:58.092Z,80.12
2018-12-05T12:47:26.930Z,80.02
2018-12-05T12:49:55.817Z,79.97
2018-12-05T12:52:24.680Z,79.97
2018-12-05T12:54:53.573Z,80.22
2018-12-05T12:57:23.143Z,80.07
2018-12-05T12:59:51.955Z,79.63
2018-12-05T13:02:20.760Z,80.18
2018-12-05T13:04:50.630Z,80.29
2018-12-05T13:07:19.479Z,80.28
2018-12-05T13:09:48.262Z,80.41
2018-12-05T13:12:23.484Z,79.69
2018-12-05T13:14:52.591Z,79.89
2018-12-05T13:17:21.376Z,79.84
2018-12-05T13:19:50.266Z,80.48
2018-12-05T13:22:19.079Z,79.96
2018-12-05T13:24:47.914Z,80.39
2018-12-05T13:27:16.754Z,80.45
2018-12-05T13:29:45.579Z,80.23
2018-12-05T13:32:14.383Z,80.42
2018-12-05T13:34:43.273Z,80.66
2018-12-05T13:37:12.097Z,80.42
2018-12-05T13:39:40.977Z,80.39
2018-12-05T13:42:10.160Z,80.39
2018-12-05T13:44:39.039Z,80.91
2018-12-05T13:47:08.664Z,81.27
2018-12-05T13:49:38.371Z,80.96
2018-12-05T13:52:07.941Z,81.21
2018-12-05T13:54:37.783Z,81.47
2018-12-05T13:57:07.342Z,81.54
2018-12-05T13:59:36.714Z,81.22
2018-12-05T14:02:05.748Z,81.75
2018-12-05T14:04:34.597Z,82.09
2018-12-05T14:07:03.804Z,81.98
2018-12-05T14:09:32.595Z,81.45
2018-12-05T14:12:01.480Z,81.51
2018-12-05T14:14:30.283Z,81.30
2018-12-05T14:17:00.275Z,81.60
2018-12-05T14:19:29.162Z,81.83
2018-12-05T14:21:58.247Z,82.19
2018-12-05T14:24:27.093Z,81.88
2018-12-05T14:26:56.118Z,81.82
2018-12-05T14:29:26.685Z,81.80
2018-12-05T14:31:56.443Z,82.28
2018-12-05T14:34:27.181Z,81.96
2018-12-05T14:36:56.020Z,81.81
2018-12-05T14:39:24.855Z,82.26
2018-12-05T14:41:53.673Z,82.51
2018-12-05T14:44:25.605Z,82.54
2018-12-05T14:46:54.495Z,82.41
2018-12-05T14:49:23.338Z,82.44
2018-12-05T14:51:52.769Z,82.58
2018-12-05T14:54:22.138Z,82.34
2018-12-05T14:56:50.929Z,82.57
2018-12-05T14:59:22.516Z,82.21
2018-12-05T15:01:52.159Z,82.56
2018-12-05T15:04:20.968Z,82.28
2018-12-05T15:06:49.800Z,83.02
2018-12-05T15:09:19.396Z,82.66
2018-12-05T15:11:48.851Z,83.05
2018-12-05T15:14:18.051Z,82.57
2018-12-05T15:16:47.792Z,82.80
2018-12-05T15:19:17.292Z,83.15
2018-12-05T15:21:46.911Z,83.27
2018-12-05T15:24:22.069Z,83.15
2018-12-05T15:26:59.082Z,83.19
2018-12-05T15:29:27.926Z,83.71
2018-12-05T15:31:56.742Z,83.41
2018-12-05T15:34:25.724Z,83.75
2018-12-05T15:36:54.580Z,83.59
2018-12-05T15:39:24.362Z,83.33
2018-12-05T15:41:53.420Z,84.06
2018-12-05T15:44:23.999Z,83.64
2018-12-05T15:46:54.454Z,84.05
2018-12-05T15:49:31.882Z,84.14
2018-12-05T15:52:03.586Z,84.60
2018-12-05T15:54:33.451Z,84.28
2018-12-05T15:57:09.661Z,84.16
2018-12-05T15:59:33.471Z,84.40
2018-12-05T16:02:11.384Z,84.57
2018-12-05T16:04:41.703Z,85.05
2018-12-05T16:07:10.603Z,85.37
2018-12-05T16:09:39.536Z,86.12
2018-12-05T16:12:08.330Z,85.70
2018-12-05T16:14:38.446Z,85.40
2018-12-05T16:17:07.876Z,85.65
2018-12-05T16:19:36.740Z,85.81
2018-12-05T16:22:05.615Z,85.86
2018-12-05T16:24:34.452Z,86.03
2018-12-05T16:27:03.296Z,86.59
2018-12-05T16:29:33.123Z,87.21
2018-12-05T16:32:03.504Z,86.20
2018-12-05T16:34:32.329Z,86.45
2018-12-05T16:37:01.192Z,86.53
2018-12-05T16:39:30.096Z,86.51
2018-12-05T16:42:00.551Z,86.84
2018-12-05T16:44:31.693Z,87.30
2018-12-05T16:47:00.592Z,86.66
2018-12-05T16:49:29.487Z,86.79
2018-12-05T16:51:58.287Z,87.15
2018-12-05T16:54:27.105Z,87.04
2018-12-05T16:56:55.938Z,86.96
2018-12-05T16:59:24.740Z,87.02
2018-12-05T17:01:53.531Z,87.05
2018-12-05T17:04:22.389Z,87.35
2018-12-05T17:06:51.239Z,87.29
2018-12-05T17:09:25.973Z,87.21
2018-12-05T17:11:49.181Z,87.41
2018-12-05T17:14:18.180Z,87.04
2018-12-05T17:16:47.479Z,86.70
2018-12-05T17:19:16.300Z,86.93
2018-12-05T17:21:47.197Z,86.98
2018-12-05T17:24:15.996Z,87.01
2018-12-05T17:26:44.905Z,87.14
2018-12-05T17:29:13.741Z,86.83
2018-12-05T17:31:42.645Z,87.08
2018-12-05T17:34:11.471Z,87.22
2018-12-05T17:36:40.311Z,87.53
2018-12-05T17:39:10.257Z,87.61
2018-12-05T17:41:39.065Z,87.31
2018-12-05T17:44:08.803Z,87.30
2018-12-05T17:46:39.231Z,87.14
2018-12-05T17:49:08.092Z,87.30
2018-12-05T17:51:36.946Z,87.85
2018-12-05T17:54:05.772Z,87.70
2018-12-05T17:56:35.146Z,87.63
2018-12-05T17:59:03.485Z,87.78
2018-12-05T18:01:32.328Z,87.77
2018-12-05T18:04:01.155Z,87.74
2018-12-05T18:06:29.946Z,87.94
2018-12-05T18:08:58.759Z,88.18
2018-12-05T18:11:27.599Z,87.99
2018-12-05T18:13:56.742Z,87.77
2018-12-05T18:16:25.655Z,87.67
2018-12-05T18:18:55.139Z,88.16
2018-12-05T18:21:23.936Z,88.01
2018-12-05T18:23:53.395Z,88.17
2018-12-05T18:26:22.164Z,88.21
2018-12-05T18:28:50.973Z,88.09
2018-12-05T18:31:19.881Z,88.57
2018-12-05T18:33:48.798Z,88.26
2018-12-05T18:36:17.699Z,88.56
2018-12-05T18:38:46.515Z,88.31
2018-12-05T18:41:15.326Z,88.69
2018-12-05T18:43:44.234Z,89.15
2018-12-05T18:46:13.061Z,88.83
2018-12-05T18:48:42.101Z,88.72
2018-12-05T18:51:10.926Z,88.87
2018-12-05T18:53:39.836Z,88.98
2018-12-05T18:56:08.744Z,88.98
2018-12-05T18:58:37.572Z,89.25
2018-12-05T19:01:06.467Z,89.34
2018-12-05T19:03:35.355Z,88.77
2018-12-05T19:06:04.191Z,88.53
2018-12-05T19:08:34.394Z,88.47
2018-12-05T19:11:01.800Z,89.49
2018-12-05T19:13:30.631Z,88.81
2018-12-05T19:15:59.468Z,89.36
2018-12-05T19:18:28.302Z,89.00
2018-12-05T19:20:58.765Z,89.09
2018-12-05T19:23:27.644Z,89.13
2018-12-05T19:25:56.466Z,88.99
2018-12-05T19:28:25.263Z,88.50
2018-12-05T19:30:54.100Z,87.90
2018-12-05T19:33:23.180Z,88.46
2018-12-05T19:35:52.058Z,88.28
2018-12-05T19:38:20.919Z,87.86
2018-12-05T19:40:49.783Z,87.91
2018-12-05T19:43:18.754Z,87.85
2018-12-05T19:45:47.600Z,87.71
2018-12-05T19:48:20.191Z,87.92
2018-12-05T19:50:51.219Z,87.90
2018-12-05T19:53:20.079Z,87.54
2018-12-05T19:55:48.939Z,87.45
2018-12-05T19:58:17.759Z,87.38
2018-12-05T20:00:46.548Z,87.41
2018-12-05T20:03:15.359Z,87.03
2018-12-05T20:05:44.517Z,87.02
2018-12-05T20:08:13.344Z,87.01
2018-12-05T20:10:42.203Z,87.11
2018-12-05T20:13:11.411Z,87.37
2018-12-05T20:15:40.223Z,86.93
2018-12-05T20:18:09.321Z,87.39
2018-12-05T20:20:38.215Z,87.07
2018-12-05T20:23:08.634Z,87.05
2018-12-05T20:25:37.418Z,87.13
2018-12-05T20:28:06.372Z,86.89
2018-12-05T20:30:35.248Z,87.24
2018-12-05T20:33:04.936Z,87.06
2018-12-05T20:35:35.140Z,87.01
2018-12-05T20:38:04.897Z,86.60
2018-12-05T20:40:35.371Z,86.51
2018-12-05T20:43:04.189Z,86.49
2018-12-05T20:45:33.038Z,86.07
2018-12-05T20:48:02.541Z,87.00
2018-12-05T20:50:31.887Z,86.81
2018-12-05T20:53:01.346Z,86.72
2018-12-05T20:55:30.233Z,86.37
2018-12-05T20:57:59.975Z,86.35
2018-12-05T21:00:28.803Z,86.34
2018-12-05T21:02:57.659Z,86.20
2018-12-05T21:05:27.272Z,86.32
2018-12-05T21:07:56.103Z,86.07
2018-12-05T21:10:24.916Z,85.99
2018-12-05T21:12:53.742Z,85.86
2018-12-05T21:15:24.639Z,85.93
2018-12-05T21:17:53.470Z,86.29
2018-12-05T21:20:26.461Z,85.97
2018-12-05T21:22:55.312Z,86.07
2018-12-05T21:25:24.337Z,86.04
2018-12-05T21:27:53.216Z,85.84
2018-12-05T21:30:22.091Z,85.77
2018-12-05T21:32:50.942Z,86.52
2018-12-05T21:35:19.770Z,86.42
2018-12-05T21:37:48.593Z,85.67
2018-12-05T21:40:18.600Z,86.07
2018-12-05T21:42:47.488Z,86.46
2018-12-05T21:45:16.347Z,86.02
2018-12-05T21:47:45.207Z,86.24
2018-12-05T21:50:14.048Z,86.42
2018-12-05T21:52:42.956Z,86.44
2018-12-05T21:55:11.910Z,86.36
2018-12-05T21:57:40.743Z,86.50
2018-12-05T22:00:11.788Z,86.45
2018-12-05T22:02:40.631Z,86.01
2018-12-05T22:05:09.499Z,85.83
2018-12-05T22:07:38.370Z,85.92
2018-12-05T22:10:08.808Z,86.11
2018-12-05T22:12:37.589Z,85.96
2018-12-05T22:15:06.662Z,86.07
2018-12-05T22:17:35.552Z,85.91
2018-12-05T22:20:05.231Z,85.69
2018-12-05T22:22:34.072Z,86.50
2018-12-05T22:25:02.947Z,86.59
2018-12-05T22:27:31.834Z,86.39
2018-12-05T22:30:00.672Z,86.21
2018-12-05T22:32:29.469Z,86.52
2018-12-05T22:34:58.275Z,86.29
2018-12-05T22:37:27.154Z,86.65
2018-12-05T22:39:55.974Z,86.67
2018-12-05T22:42:26.016Z,86.90
2018-12-05T22:44:54.884Z,86.63
2018-12-05T22:47:23.690Z,86.85
2018-12-05T22:49:52.507Z,86.75
2018-12-05T22:52:21.912Z,87.12
2018-12-05T22:54:50.751Z,86.69
2018-12-05T22:57:19.640Z,86.36
2018-12-05T22:59:48.450Z,86.42
2018-12-05T23:02:17.283Z,86.96
2018-12-05T23:04:46.157Z,86.78
2018-12-05T23:07:15.606Z,86.91
2018-12-05T23:09:44.527Z,86.73
2018-12-05T23:12:14.138Z,86.96
2018-12-05T23:14:44.228Z,86.45
2018-12-05T23:17:14.811Z,86.98
2018-12-05T23:19:44.321Z,86.79
2018-12-05T23:22:13.113Z,87.01
2018-12-05T23:24:41.999Z,86.82
2018-12-05T23:27:11.181Z,86.54
2018-12-05T23:29:39.991Z,86.58
2018-12-05T23:32:08.852Z,86.93
2018-12-05T23:34:37.668Z,87.01
2018-12-05T23:37:06.555Z,86.78
2018-12-05T23:39:35.387Z,87.27
2018-12-05T23:42:04.513Z,87.21
2018-12-05T23:44:33.328Z,87.24
2018-12-05T23:47:02.956Z,86.87
2018-12-05T23:49:31.766Z,87.00
2018-12-05T23:52:00.584Z,87.29
2018-12-05T23:54:29.447Z,87.24
2018-12-05T23:56:58.246Z,87.50
2018-12-05T23:59:27.063Z,87.35
